sensor_id;sensor_type;location;lat;lon;timestamp;temperature;humidity
34434;DHT22;34290;48.562;13.384;2023-02-01T00:02:56;3.20;99.90
34434;DHT22;34290;48.562;13.384;2023-02-01T00:05:22;3.30;99.90
34434;DHT22;34290;48.562;13.384;2023-02-01T00:10:17;3.20;99.90
34434;DHT22;34290;48.562;13.384;2023-02-01T00:12:46;3.20;99.90
34434;DHT22;34290;48.562;13.384;2023-02-01T00:15:12;3.20;99.90
34434;DHT22;34290;48.562;13.384;2023-02-01T00:20:08;3.30;99.90
34434;DHT22;34290;48.562;13.384;2023-02-01T00:22:35;3.30;99.90
34434;DHT22;34290;48.562;13.384;2023-02-01T00:29:58;3.30;99.90
34434;DHT22;34290;48.562;13.384;2023-02-01T00:32:25;3.30;99.90
34434;DHT22;34290;48.562;13.384;2023-02-01T00:37:19;3.30;99.90
34434;DHT22;34290;48.562;13.384;2023-02-01T00:39:47;3.30;99.90
34434;DHT22;34290;48.562;13.384;2023-02-01T00:47:16;3.30;99.90
34434;DHT22;34290;48.562;13.384;2023-02-01T00:49:43;3.30;99.90
34434;DHT22;34290;48.562;13.384;2023-02-01T00:54:37;3.20;99.90
34434;DHT22;34290;48.562;13.384;2023-02-01T00:57:04;3.20;99.90
34434;DHT22;34290;48.562;13.384;2023-02-01T00:59:31;3.30;99.90
34434;DHT22;34290;48.562;13.384;2023-02-01T01:01:58;3.30;99.90
34434;DHT22;34290;48.562;13.384;2023-02-01T01:04:26;3.30;99.90
34434;DHT22;34290;48.562;13.384;2023-02-01T01:06:55;3.30;99.90
34434;DHT22;34290;48.562;13.384;2023-02-01T01:09:22;3.30;99.90
34434;DHT22;34290;48.562;13.384;2023-02-01T01:16:45;3.30;99.90
34434;DHT22;34290;48.562;13.384;2023-02-01T01:24:08;3.30;99.90
34434;DHT22;34290;48.562;13.384;2023-02-01T01:29:04;3.30;99.90
34434;DHT22;34290;48.562;13.384;2023-02-01T01:33:59;3.20;99.90
34434;DHT22;34290;48.562;13.384;2023-02-01T01:36:27;3.30;99.90
34434;DHT22;34290;48.562;13.384;2023-02-01T01:41:24;3.30;99.90
34434;DHT22;34290;48.562;13.384;2023-02-01T01:43:54;3.30;99.90
34434;DHT22;34290;48.562;13.384;2023-02-01T01:46:23;3.30;99.90
34434;DHT22;34290;48.562;13.384;2023-02-01T01:48:56;3.30;99.90
34434;DHT22;34290;48.562;13.384;2023-02-01T01:51:26;3.30;99.90
34434;DHT22;34290;48.562;13.384;2023-02-01T01:54:01;3.30;99.90
34434;DHT22;34290;48.562;13.384;2023-02-01T01:56:30;3.30;99.90
34434;DHT22;34290;48.562;13.384;2023-02-01T01:58:58;3.30;99.90
34434;DHT22;34290;48.562;13.384;2023-02-01T02:06:30;3.30;99.90
34434;DHT22;34290;48.562;13.384;2023-02-01T02:09:02;3.30;99.90
34434;DHT22;34290;48.562;13.384;2023-02-01T02:11:29;3.20;99.90
34434;DHT22;34290;48.562;13.384;2023-02-01T02:13:57;3.20;99.90
34434;DHT22;34290;48.562;13.384;2023-02-01T02:16:38;3.30;99.90
34434;DHT22;34290;48.562;13.384;2023-02-01T02:19:38;3.30;99.90
34434;DHT22;34290;48.562;13.384;2023-02-01T02:22:32;3.30;99.90
34434;DHT22;34290;48.562;13.384;2023-02-01T02:28:12;3.30;99.90
34434;DHT22;34290;48.562;13.384;2023-02-01T02:30:59;3.30;99.90
34434;DHT22;34290;48.562;13.384;2023-02-01T02:33:51;3.30;99.90
34434;DHT22;34290;48.562;13.384;2023-02-01T02:36:25;3.30;99.90
34434;DHT22;34290;48.562;13.384;2023-02-01T02:39:04;3.40;99.90
34434;DHT22;34290;48.562;13.384;2023-02-01T02:41:40;3.40;99.90
34434;DHT22;34290;48.562;13.384;2023-02-01T02:44:34;3.40;99.90
34434;DHT22;34290;48.562;13.384;2023-02-01T02:47:23;3.40;99.90
34434;DHT22;34290;48.562;13.384;2023-02-01T02:49:56;3.40;99.90
34434;DHT22;34290;48.562;13.384;2023-02-01T02:52:46;3.40;99.90
34434;DHT22;34290;48.562;13.384;2023-02-01T02:55:35;3.40;99.90
34434;DHT22;34290;48.562;13.384;2023-02-01T02:58:04;3.50;99.90
34434;DHT22;34290;48.562;13.384;2023-02-01T03:00:49;3.40;99.90
34434;DHT22;34290;48.562;13.384;2023-02-01T03:03:37;3.50;99.90
34434;DHT22;34290;48.562;13.384;2023-02-01T03:06:24;3.50;99.90
34434;DHT22;34290;48.562;13.384;2023-02-01T03:08:54;3.40;99.90
34434;DHT22;34290;48.562;13.384;2023-02-01T03:11:24;3.40;99.90
34434;DHT22;34290;48.562;13.384;2023-02-01T03:14:14;3.40;99.90
34434;DHT22;34290;48.562;13.384;2023-02-01T03:16:46;3.40;99.90
34434;DHT22;34290;48.562;13.384;2023-02-01T03:19:17;3.50;99.90
34434;DHT22;34290;48.562;13.384;2023-02-01T03:21:50;3.50;99.90
34434;DHT22;34290;48.562;13.384;2023-02-01T03:24:23;2.20;99.90
34434;DHT22;34290;48.562;13.384;2023-02-01T03:27:03;3.50;99.90
34434;DHT22;34290;48.562;13.384;2023-02-01T03:29:38;3.50;99.90
34434;DHT22;34290;48.562;13.384;2023-02-01T03:32:06;3.50;99.90
34434;DHT22;34290;48.562;13.384;2023-02-01T03:34:35;3.50;99.90
34434;DHT22;34290;48.562;13.384;2023-02-01T03:37:07;3.50;99.90
34434;DHT22;34290;48.562;13.384;2023-02-01T03:39:38;3.60;99.90
34434;DHT22;34290;48.562;13.384;2023-02-01T03:42:09;3.50;99.90
34434;DHT22;34290;48.562;13.384;2023-02-01T03:47:09;3.50;99.90
34434;DHT22;34290;48.562;13.384;2023-02-01T03:49:41;3.60;99.90
34434;DHT22;34290;48.562;13.384;2023-02-01T03:52:13;3.50;99.90
34434;DHT22;34290;48.562;13.384;2023-02-01T03:54:41;3.60;99.90
34434;DHT22;34290;48.562;13.384;2023-02-01T03:57:13;3.50;99.90
34434;DHT22;34290;48.562;13.384;2023-02-01T03:59:41;3.60;99.90
34434;DHT22;34290;48.562;13.384;2023-02-01T04:04:35;3.50;99.90
34434;DHT22;34290;48.562;13.384;2023-02-01T04:09:31;3.50;99.90
34434;DHT22;34290;48.562;13.384;2023-02-01T04:16:53;3.60;99.90
34434;DHT22;34290;48.562;13.384;2023-02-01T04:19:20;3.60;99.90
34434;DHT22;34290;48.562;13.384;2023-02-01T04:21:47;3.50;99.90
34434;DHT22;34290;48.562;13.384;2023-02-01T04:24:14;3.50;99.90
34434;DHT22;34290;48.562;13.384;2023-02-01T04:26:42;3.50;99.90
34434;DHT22;34290;48.562;13.384;2023-02-01T04:29:09;3.50;99.90
34434;DHT22;34290;48.562;13.384;2023-02-01T04:31:36;3.50;99.90
34434;DHT22;34290;48.562;13.384;2023-02-01T04:34:03;3.50;99.90
34434;DHT22;34290;48.562;13.384;2023-02-01T04:36:30;3.60;99.90
34434;DHT22;34290;48.562;13.384;2023-02-01T04:38:57;3.50;99.90
34434;DHT22;34290;48.562;13.384;2023-02-01T04:41:24;3.60;99.90
34434;DHT22;34290;48.562;13.384;2023-02-01T04:43:52;3.50;99.90
34434;DHT22;34290;48.562;13.384;2023-02-01T04:46:19;3.50;99.90
34434;DHT22;34290;48.562;13.384;2023-02-01T04:48:46;3.50;99.90
34434;DHT22;34290;48.562;13.384;2023-02-01T04:51:13;3.50;99.90
34434;DHT22;34290;48.562;13.384;2023-02-01T04:53:41;3.40;99.90
34434;DHT22;34290;48.562;13.384;2023-02-01T04:56:08;3.50;99.90
34434;DHT22;34290;48.562;13.384;2023-02-01T04:58:35;3.50;99.90
34434;DHT22;34290;48.562;13.384;2023-02-01T05:01:04;3.50;99.90
34434;DHT22;34290;48.562;13.384;2023-02-01T05:03:32;3.50;99.90
34434;DHT22;34290;48.562;13.384;2023-02-01T05:05:59;3.60;99.90
34434;DHT22;34290;48.562;13.384;2023-02-01T05:08:26;3.60;99.90
34434;DHT22;34290;48.562;13.384;2023-02-01T05:10:54;3.70;99.90
34434;DHT22;34290;48.562;13.384;2023-02-01T05:13:21;3.60;99.90
34434;DHT22;34290;48.562;13.384;2023-02-01T05:16:07;3.60;99.90
34434;DHT22;34290;48.562;13.384;2023-02-01T05:18:34;3.50;99.90
34434;DHT22;34290;48.562;13.384;2023-02-01T05:21:01;3.50;99.90
34434;DHT22;34290;48.562;13.384;2023-02-01T05:23:28;3.50;99.90
34434;DHT22;34290;48.562;13.384;2023-02-01T05:25:59;3.50;99.90
34434;DHT22;34290;48.562;13.384;2023-02-01T05:28:27;3.50;99.90
34434;DHT22;34290;48.562;13.384;2023-02-01T05:30:54;3.50;99.90
34434;DHT22;34290;48.562;13.384;2023-02-01T05:33:22;3.40;99.90
34434;DHT22;34290;48.562;13.384;2023-02-01T05:35:49;3.40;99.90
34434;DHT22;34290;48.562;13.384;2023-02-01T05:38:17;3.40;99.90
34434;DHT22;34290;48.562;13.384;2023-02-01T05:40:43;3.40;99.90
34434;DHT22;34290;48.562;13.384;2023-02-01T05:43:15;3.50;99.90
34434;DHT22;34290;48.562;13.384;2023-02-01T05:45:42;3.50;99.90
34434;DHT22;34290;48.562;13.384;2023-02-01T05:48:10;3.50;99.90
34434;DHT22;34290;48.562;13.384;2023-02-01T05:50:38;3.40;99.90
34434;DHT22;34290;48.562;13.384;2023-02-01T05:53:05;3.40;99.90
34434;DHT22;34290;48.562;13.384;2023-02-01T05:55:32;3.50;99.90
34434;DHT22;34290;48.562;13.384;2023-02-01T05:57:59;3.50;99.90
34434;DHT22;34290;48.562;13.384;2023-02-01T06:00:26;3.40;99.90
34434;DHT22;34290;48.562;13.384;2023-02-01T06:02:53;3.40;99.90
34434;DHT22;34290;48.562;13.384;2023-02-01T06:05:20;3.40;99.90
34434;DHT22;34290;48.562;13.384;2023-02-01T06:07:48;3.40;99.90
34434;DHT22;34290;48.562;13.384;2023-02-01T06:10:17;3.50;99.90
34434;DHT22;34290;48.562;13.384;2023-02-01T06:12:44;3.40;99.90
34434;DHT22;34290;48.562;13.384;2023-02-01T06:15:11;3.40;99.90
34434;DHT22;34290;48.562;13.384;2023-02-01T06:17:41;3.40;99.90
34434;DHT22;34290;48.562;13.384;2023-02-01T06:20:10;3.40;99.90
34434;DHT22;34290;48.562;13.384;2023-02-01T06:22:37;3.40;99.90
34434;DHT22;34290;48.562;13.384;2023-02-01T06:25:08;3.40;99.90
34434;DHT22;34290;48.562;13.384;2023-02-01T06:27:35;3.40;99.90
34434;DHT22;34290;48.562;13.384;2023-02-01T06:30:03;3.40;99.90
34434;DHT22;34290;48.562;13.384;2023-02-01T06:32:31;3.40;99.90
34434;DHT22;34290;48.562;13.384;2023-02-01T06:34:58;3.40;99.90
34434;DHT22;34290;48.562;13.384;2023-02-01T06:37:26;3.40;99.90
34434;DHT22;34290;48.562;13.384;2023-02-01T06:39:54;3.40;99.90
34434;DHT22;34290;48.562;13.384;2023-02-01T06:42:23;3.40;99.90
34434;DHT22;34290;48.562;13.384;2023-02-01T06:44:51;3.40;99.90
34434;DHT22;34290;48.562;13.384;2023-02-01T06:47:18;3.40;99.90
34434;DHT22;34290;48.562;13.384;2023-02-01T06:49:44;3.40;99.90
34434;DHT22;34290;48.562;13.384;2023-02-01T06:52:11;3.30;99.90
34434;DHT22;34290;48.562;13.384;2023-02-01T06:54:38;3.30;99.90
34434;DHT22;34290;48.562;13.384;2023-02-01T06:57:05;3.30;99.90
34434;DHT22;34290;48.562;13.384;2023-02-01T06:59:33;3.30;99.90
34434;DHT22;34290;48.562;13.384;2023-02-01T07:02:00;3.40;99.90
34434;DHT22;34290;48.562;13.384;2023-02-01T07:04:27;3.40;99.90
34434;DHT22;34290;48.562;13.384;2023-02-01T07:06:54;3.40;99.90
34434;DHT22;34290;48.562;13.384;2023-02-01T07:09:21;3.30;99.90
34434;DHT22;34290;48.562;13.384;2023-02-01T07:11:48;3.40;99.90
34434;DHT22;34290;48.562;13.384;2023-02-01T07:14:15;3.40;99.90
34434;DHT22;34290;48.562;13.384;2023-02-01T07:16:43;3.40;99.90
34434;DHT22;34290;48.562;13.384;2023-02-01T07:19:13;3.40;99.90
34434;DHT22;34290;48.562;13.384;2023-02-01T07:21:40;3.40;99.90
34434;DHT22;34290;48.562;13.384;2023-02-01T07:24:07;3.40;99.90
34434;DHT22;34290;48.562;13.384;2023-02-01T07:26:34;3.40;99.90
34434;DHT22;34290;48.562;13.384;2023-02-01T07:31:28;3.30;99.90
34434;DHT22;34290;48.562;13.384;2023-02-01T07:33:56;3.30;99.90
34434;DHT22;34290;48.562;13.384;2023-02-01T07:36:24;3.20;99.90
34434;DHT22;34290;48.562;13.384;2023-02-01T07:38:51;3.20;99.90
34434;DHT22;34290;48.562;13.384;2023-02-01T07:41:18;3.20;99.90
34434;DHT22;34290;48.562;13.384;2023-02-01T07:43:45;3.20;99.90
34434;DHT22;34290;48.562;13.384;2023-02-01T07:46:12;3.20;99.90
34434;DHT22;34290;48.562;13.384;2023-02-01T07:48:40;3.20;99.90
34434;DHT22;34290;48.562;13.384;2023-02-01T07:51:11;3.20;99.90
34434;DHT22;34290;48.562;13.384;2023-02-01T07:53:40;3.20;99.90
34434;DHT22;34290;48.562;13.384;2023-02-01T07:56:11;3.30;99.90
34434;DHT22;34290;48.562;13.384;2023-02-01T07:58:38;3.40;99.90
34434;DHT22;34290;48.562;13.384;2023-02-01T08:01:05;3.40;99.90
34434;DHT22;34290;48.562;13.384;2023-02-01T08:03:51;3.50;99.90
34434;DHT22;34290;48.562;13.384;2023-02-01T08:06:20;3.60;99.90
34434;DHT22;34290;48.562;13.384;2023-02-01T08:08:47;3.60;99.90
34434;DHT22;34290;48.562;13.384;2023-02-01T08:11:14;3.60;99.90
34434;DHT22;34290;48.562;13.384;2023-02-01T08:13:42;3.70;99.90
34434;DHT22;34290;48.562;13.384;2023-02-01T08:16:10;3.80;99.90
34434;DHT22;34290;48.562;13.384;2023-02-01T08:18:38;3.80;99.90
34434;DHT22;34290;48.562;13.384;2023-02-01T08:21:07;3.80;99.90
34434;DHT22;34290;48.562;13.384;2023-02-01T08:23:37;3.90;99.90
34434;DHT22;34290;48.562;13.384;2023-02-01T08:26:06;3.90;99.90
34434;DHT22;34290;48.562;13.384;2023-02-01T08:28:33;4.00;99.90
34434;DHT22;34290;48.562;13.384;2023-02-01T08:31:04;4.00;99.90
34434;DHT22;34290;48.562;13.384;2023-02-01T08:33:32;4.00;99.90
34434;DHT22;34290;48.562;13.384;2023-02-01T08:36:01;4.10;99.90
34434;DHT22;34290;48.562;13.384;2023-02-01T08:38:28;4.10;99.90
34434;DHT22;34290;48.562;13.384;2023-02-01T08:40:56;4.20;99.90
34434;DHT22;34290;48.562;13.384;2023-02-01T08:43:23;4.20;99.90
34434;DHT22;34290;48.562;13.384;2023-02-01T08:45:54;4.30;99.90
34434;DHT22;34290;48.562;13.384;2023-02-01T08:48:21;4.40;99.90
34434;DHT22;34290;48.562;13.384;2023-02-01T08:53:15;4.50;99.90
34434;DHT22;34290;48.562;13.384;2023-02-01T08:55:42;4.60;99.90
34434;DHT22;34290;48.562;13.384;2023-02-01T08:58:11;4.60;99.90
34434;DHT22;34290;48.562;13.384;2023-02-01T09:00:39;4.70;99.90
34434;DHT22;34290;48.562;13.384;2023-02-01T09:03:08;4.80;99.90
34434;DHT22;34290;48.562;13.384;2023-02-01T09:05:36;4.70;99.90
34434;DHT22;34290;48.562;13.384;2023-02-01T09:08:03;4.70;99.90
34434;DHT22;34290;48.562;13.384;2023-02-01T09:10:30;4.60;99.90
34434;DHT22;34290;48.562;13.384;2023-02-01T09:12:57;4.60;99.90
34434;DHT22;34290;48.562;13.384;2023-02-01T09:15:26;4.60;99.90
34434;DHT22;34290;48.562;13.384;2023-02-01T09:17:53;4.60;99.90
34434;DHT22;34290;48.562;13.384;2023-02-01T09:20:19;4.50;99.90
34434;DHT22;34290;48.562;13.384;2023-02-01T09:22:50;4.10;99.90
34434;DHT22;34290;48.562;13.384;2023-02-01T09:25:17;3.80;99.90
34434;DHT22;34290;48.562;13.384;2023-02-01T09:27:44;3.70;99.90
34434;DHT22;34290;48.562;13.384;2023-02-01T09:30:11;3.60;99.90
34434;DHT22;34290;48.562;13.384;2023-02-01T09:32:40;3.60;99.90
34434;DHT22;34290;48.562;13.384;2023-02-01T09:35:07;3.60;99.90
34434;DHT22;34290;48.562;13.384;2023-02-01T09:37:34;3.60;99.90
34434;DHT22;34290;48.562;13.384;2023-02-01T09:40:01;3.50;99.90
34434;DHT22;34290;48.562;13.384;2023-02-01T09:42:53;3.30;99.90
34434;DHT22;34290;48.562;13.384;2023-02-01T09:45:25;3.10;99.90
34434;DHT22;34290;48.562;13.384;2023-02-01T09:48:00;2.90;99.90
34434;DHT22;34290;48.562;13.384;2023-02-01T09:50:34;2.70;99.90
34434;DHT22;34290;48.562;13.384;2023-02-01T09:53:04;2.70;99.90
34434;DHT22;34290;48.562;13.384;2023-02-01T09:55:38;2.60;99.90
34434;DHT22;34290;48.562;13.384;2023-02-01T09:58:08;2.70;99.90
34434;DHT22;34290;48.562;13.384;2023-02-01T10:00:40;2.80;99.90
34434;DHT22;34290;48.562;13.384;2023-02-01T10:03:12;2.80;99.90
34434;DHT22;34290;48.562;13.384;2023-02-01T10:05:55;2.80;99.90
34434;DHT22;34290;48.562;13.384;2023-02-01T10:08:36;3.00;99.90
34434;DHT22;34290;48.562;13.384;2023-02-01T10:11:17;3.00;99.90
34434;DHT22;34290;48.562;13.384;2023-02-01T10:13:52;3.20;99.90
34434;DHT22;34290;48.562;13.384;2023-02-01T10:16:30;3.30;99.90
34434;DHT22;34290;48.562;13.384;2023-02-01T10:19:19;3.30;99.90
34434;DHT22;34290;48.562;13.384;2023-02-01T10:21:53;3.20;99.90
34434;DHT22;34290;48.562;13.384;2023-02-01T10:24:41;3.30;99.90
34434;DHT22;34290;48.562;13.384;2023-02-01T10:27:13;3.50;99.90
34434;DHT22;34290;48.562;13.384;2023-02-01T10:29:42;3.40;99.90
34434;DHT22;34290;48.562;13.384;2023-02-01T10:32:13;3.40;99.90
34434;DHT22;34290;48.562;13.384;2023-02-01T10:34:44;3.30;99.90
34434;DHT22;34290;48.562;13.384;2023-02-01T10:37:22;3.20;99.90
34434;DHT22;34290;48.562;13.384;2023-02-01T10:39:52;3.20;99.90
34434;DHT22;34290;48.562;13.384;2023-02-01T10:42:23;3.40;99.90
34434;DHT22;34290;48.562;13.384;2023-02-01T10:44:51;3.60;99.90
34434;DHT22;34290;48.562;13.384;2023-02-01T10:47:20;3.80;99.90
34434;DHT22;34290;48.562;13.384;2023-02-01T10:49:54;3.90;99.90
34434;DHT22;34290;48.562;13.384;2023-02-01T10:52:31;3.90;99.90
34434;DHT22;34290;48.562;13.384;2023-02-01T10:58:15;3.90;99.90
34434;DHT22;34290;48.562;13.384;2023-02-01T11:00:45;4.00;99.90
34434;DHT22;34290;48.562;13.384;2023-02-01T11:03:34;4.00;99.90
34434;DHT22;34290;48.562;13.384;2023-02-01T11:06:18;4.10;99.90
34434;DHT22;34290;48.562;13.384;2023-02-01T11:08:48;4.10;99.90
34434;DHT22;34290;48.562;13.384;2023-02-01T11:11:16;3.90;99.90
34434;DHT22;34290;48.562;13.384;2023-02-01T11:13:43;3.90;99.90
34434;DHT22;34290;48.562;13.384;2023-02-01T11:16:13;3.90;99.90
34434;DHT22;34290;48.562;13.384;2023-02-01T11:18:41;3.90;99.90
34434;DHT22;34290;48.562;13.384;2023-02-01T11:21:11;3.90;99.90
34434;DHT22;34290;48.562;13.384;2023-02-01T11:23:43;4.00;99.90
34434;DHT22;34290;48.562;13.384;2023-02-01T11:26:14;3.90;99.90
34434;DHT22;34290;48.562;13.384;2023-02-01T11:28:50;4.00;99.90
34434;DHT22;34290;48.562;13.384;2023-02-01T11:31:18;3.90;99.90
34434;DHT22;34290;48.562;13.384;2023-02-01T11:33:50;3.90;99.90
34434;DHT22;34290;48.562;13.384;2023-02-01T11:36:21;3.90;99.90
34434;DHT22;34290;48.562;13.384;2023-02-01T11:38:53;4.00;99.90
34434;DHT22;34290;48.562;13.384;2023-02-01T11:41:23;4.30;99.90
34434;DHT22;34290;48.562;13.384;2023-02-01T11:43:53;4.50;99.90
34434;DHT22;34290;48.562;13.384;2023-02-01T11:46:24;4.70;99.90
34434;DHT22;34290;48.562;13.384;2023-02-01T11:48:53;5.00;99.90
34434;DHT22;34290;48.562;13.384;2023-02-01T11:51:36;5.10;99.90
34434;DHT22;34290;48.562;13.384;2023-02-01T11:54:15;5.10;99.90
34434;DHT22;34290;48.562;13.384;2023-02-01T11:56:51;5.00;99.90
34434;DHT22;34290;48.562;13.384;2023-02-01T11:59:32;4.90;99.90
34434;DHT22;34290;48.562;13.384;2023-02-01T12:02:28;4.90;99.90
34434;DHT22;34290;48.562;13.384;2023-02-01T12:05:14;4.80;99.90
34434;DHT22;34290;48.562;13.384;2023-02-01T12:10:55;4.80;99.90
34434;DHT22;34290;48.562;13.384;2023-02-01T12:13:39;4.80;99.90
34434;DHT22;34290;48.562;13.384;2023-02-01T12:16:18;4.70;99.90
34434;DHT22;34290;48.562;13.384;2023-02-01T12:19:23;4.70;99.90
34434;DHT22;34290;48.562;13.384;2023-02-01T12:22:01;4.70;99.90
34434;DHT22;34290;48.562;13.384;2023-02-01T12:24:57;4.70;99.90
34434;DHT22;34290;48.562;13.384;2023-02-01T12:27:47;4.70;99.90
34434;DHT22;34290;48.562;13.384;2023-02-01T12:30:38;4.80;99.90
34434;DHT22;34290;48.562;13.384;2023-02-01T12:33:17;4.90;99.90
34434;DHT22;34290;48.562;13.384;2023-02-01T12:35:53;5.00;99.90
34434;DHT22;34290;48.562;13.384;2023-02-01T12:38:51;5.00;99.90
34434;DHT22;34290;48.562;13.384;2023-02-01T12:41:47;4.90;99.90
34434;DHT22;34290;48.562;13.384;2023-02-01T12:44:26;4.90;99.90
34434;DHT22;34290;48.562;13.384;2023-02-01T12:46:57;5.10;99.90
34434;DHT22;34290;48.562;13.384;2023-02-01T12:49:31;5.10;99.90
34434;DHT22;34290;48.562;13.384;2023-02-01T12:52:04;5.30;99.90
34434;DHT22;34290;48.562;13.384;2023-02-01T12:54:35;5.30;99.90
34434;DHT22;34290;48.562;13.384;2023-02-01T12:57:11;5.30;99.90
34434;DHT22;34290;48.562;13.384;2023-02-01T12:59:42;5.40;99.90
34434;DHT22;34290;48.562;13.384;2023-02-01T13:02:15;5.30;99.90
34434;DHT22;34290;48.562;13.384;2023-02-01T13:04:58;5.20;99.90
34434;DHT22;34290;48.562;13.384;2023-02-01T13:07:31;5.20;99.90
34434;DHT22;34290;48.562;13.384;2023-02-01T13:10:05;5.10;99.90
34434;DHT22;34290;48.562;13.384;2023-02-01T13:12:44;5.10;99.90
34434;DHT22;34290;48.562;13.384;2023-02-01T13:15:16;5.10;99.90
34434;DHT22;34290;48.562;13.384;2023-02-01T13:17:44;5.00;99.90
34434;DHT22;34290;48.562;13.384;2023-02-01T13:20:22;4.90;99.90
34434;DHT22;34290;48.562;13.384;2023-02-01T13:22:54;4.90;99.90
34434;DHT22;34290;48.562;13.384;2023-02-01T13:25:30;4.90;99.90
34434;DHT22;34290;48.562;13.384;2023-02-01T13:28:04;5.00;99.90
34434;DHT22;34290;48.562;13.384;2023-02-01T13:30:42;5.00;99.90
34434;DHT22;34290;48.562;13.384;2023-02-01T13:33:31;5.00;99.90
34434;DHT22;34290;48.562;13.384;2023-02-01T13:36:33;4.90;99.90
34434;DHT22;34290;48.562;13.384;2023-02-01T13:39:22;4.80;99.90
34434;DHT22;34290;48.562;13.384;2023-02-01T13:41:54;4.80;99.90
34434;DHT22;34290;48.562;13.384;2023-02-01T13:44:28;4.70;99.90
34434;DHT22;34290;48.562;13.384;2023-02-01T13:47:01;4.70;99.90
34434;DHT22;34290;48.562;13.384;2023-02-01T13:49:30;4.60;99.90
34434;DHT22;34290;48.562;13.384;2023-02-01T13:51:59;4.60;99.90
34434;DHT22;34290;48.562;13.384;2023-02-01T13:54:30;4.50;99.90
34434;DHT22;34290;48.562;13.384;2023-02-01T13:56:58;4.50;99.90
34434;DHT22;34290;48.562;13.384;2023-02-01T14:00:07;4.50;99.90
34434;DHT22;34290;48.562;13.384;2023-02-01T14:03:06;4.50;99.90
34434;DHT22;34290;48.562;13.384;2023-02-01T14:06:02;4.40;99.90
34434;DHT22;34290;48.562;13.384;2023-02-01T14:08:39;4.40;99.90
34434;DHT22;34290;48.562;13.384;2023-02-01T14:13:35;4.40;99.90
34434;DHT22;34290;48.562;13.384;2023-02-01T14:16:15;4.40;99.90
34434;DHT22;34290;48.562;13.384;2023-02-01T14:18:59;4.30;99.90
34434;DHT22;34290;48.562;13.384;2023-02-01T14:21:29;4.30;99.90
34434;DHT22;34290;48.562;13.384;2023-02-01T14:23:59;4.30;99.90
34434;DHT22;34290;48.562;13.384;2023-02-01T14:26:40;4.30;99.90
34434;DHT22;34290;48.562;13.384;2023-02-01T14:29:26;4.30;99.90
34434;DHT22;34290;48.562;13.384;2023-02-01T14:32:01;4.30;99.90
34434;DHT22;34290;48.562;13.384;2023-02-01T14:34:37;4.30;99.90
34434;DHT22;34290;48.562;13.384;2023-02-01T14:37:11;4.40;99.90
34434;DHT22;34290;48.562;13.384;2023-02-01T14:39:54;4.40;99.90
34434;DHT22;34290;48.562;13.384;2023-02-01T14:42:27;4.40;99.90
34434;DHT22;34290;48.562;13.384;2023-02-01T14:44:56;4.40;99.90
34434;DHT22;34290;48.562;13.384;2023-02-01T14:47:44;4.50;99.90
34434;DHT22;34290;48.562;13.384;2023-02-01T14:50:36;4.50;99.90
34434;DHT22;34290;48.562;13.384;2023-02-01T14:53:18;4.40;99.90
34434;DHT22;34290;48.562;13.384;2023-02-01T14:55:49;4.50;99.90
34434;DHT22;34290;48.562;13.384;2023-02-01T14:58:27;4.50;99.90
34434;DHT22;34290;48.562;13.384;2023-02-01T15:00:59;4.60;99.90
34434;DHT22;34290;48.562;13.384;2023-02-01T15:03:45;4.60;99.90
34434;DHT22;34290;48.562;13.384;2023-02-01T15:06:25;4.50;99.90
34434;DHT22;34290;48.562;13.384;2023-02-01T15:08:55;4.40;99.90
34434;DHT22;34290;48.562;13.384;2023-02-01T15:11:22;4.40;99.90
34434;DHT22;34290;48.562;13.384;2023-02-01T15:13:50;4.40;99.90
34434;DHT22;34290;48.562;13.384;2023-02-01T15:16:21;4.40;99.90
34434;DHT22;34290;48.562;13.384;2023-02-01T15:18:50;4.40;99.90
34434;DHT22;34290;48.562;13.384;2023-02-01T15:21:19;4.40;99.90
34434;DHT22;34290;48.562;13.384;2023-02-01T15:23:47;4.40;99.90
34434;DHT22;34290;48.562;13.384;2023-02-01T15:26:26;4.40;99.90
34434;DHT22;34290;48.562;13.384;2023-02-01T15:31:32;4.30;99.90
34434;DHT22;34290;48.562;13.384;2023-02-01T15:34:01;4.40;99.90
34434;DHT22;34290;48.562;13.384;2023-02-01T15:36:28;4.30;99.90
34434;DHT22;34290;48.562;13.384;2023-02-01T15:39:17;4.30;99.90
34434;DHT22;34290;48.562;13.384;2023-02-01T15:41:51;4.30;99.90
34434;DHT22;34290;48.562;13.384;2023-02-01T15:44:29;4.30;99.90
34434;DHT22;34290;48.562;13.384;2023-02-01T15:46:57;4.30;99.90
34434;DHT22;34290;48.562;13.384;2023-02-01T15:49:29;4.30;99.90
34434;DHT22;34290;48.562;13.384;2023-02-01T15:51:57;4.30;99.90
34434;DHT22;34290;48.562;13.384;2023-02-01T15:54:28;4.30;99.90
34434;DHT22;34290;48.562;13.384;2023-02-01T15:56:59;4.30;99.90
34434;DHT22;34290;48.562;13.384;2023-02-01T15:59:34;4.30;99.90
34434;DHT22;34290;48.562;13.384;2023-02-01T16:04:31;4.30;99.90
34434;DHT22;34290;48.562;13.384;2023-02-01T16:07:00;4.30;99.90
34434;DHT22;34290;48.562;13.384;2023-02-01T16:09:40;4.30;99.90
34434;DHT22;34290;48.562;13.384;2023-02-01T16:12:28;4.30;99.90
34434;DHT22;34290;48.562;13.384;2023-02-01T16:14:56;4.30;99.90
34434;DHT22;34290;48.562;13.384;2023-02-01T16:19:51;4.40;99.90
34434;DHT22;34290;48.562;13.384;2023-02-01T16:22:18;4.30;99.90
34434;DHT22;34290;48.562;13.384;2023-02-01T16:24:45;4.40;99.90
34434;DHT22;34290;48.562;13.384;2023-02-01T16:27:12;4.40;99.90
34434;DHT22;34290;48.562;13.384;2023-02-01T16:29:39;4.40;99.90
34434;DHT22;34290;48.562;13.384;2023-02-01T16:37:03;4.40;99.90
34434;DHT22;34290;48.562;13.384;2023-02-01T16:41:58;4.40;99.90
34434;DHT22;34290;48.562;13.384;2023-02-01T16:46:52;4.40;99.90
34434;DHT22;34290;48.562;13.384;2023-02-01T16:49:21;4.40;99.90
34434;DHT22;34290;48.562;13.384;2023-02-01T16:51:49;4.40;99.90
34434;DHT22;34290;48.562;13.384;2023-02-01T16:54:19;4.40;99.90
34434;DHT22;34290;48.562;13.384;2023-02-01T16:56:46;4.30;99.90
34434;DHT22;34290;48.562;13.384;2023-02-01T16:59:13;4.40;99.90
34434;DHT22;34290;48.562;13.384;2023-02-01T17:01:41;4.40;99.90
34434;DHT22;34290;48.562;13.384;2023-02-01T17:04:08;4.40;99.90
34434;DHT22;34290;48.562;13.384;2023-02-01T17:06:36;4.40;99.90
34434;DHT22;34290;48.562;13.384;2023-02-01T17:09:04;4.40;99.90
34434;DHT22;34290;48.562;13.384;2023-02-01T17:11:33;4.40;99.90
34434;DHT22;34290;48.562;13.384;2023-02-01T17:14:07;4.40;99.90
34434;DHT22;34290;48.562;13.384;2023-02-01T17:19:05;4.40;99.90
34434;DHT22;34290;48.562;13.384;2023-02-01T17:21:39;4.40;99.90
34434;DHT22;34290;48.562;13.384;2023-02-01T17:24:09;4.40;99.90
34434;DHT22;34290;48.562;13.384;2023-02-01T17:26:37;4.40;99.90
34434;DHT22;34290;48.562;13.384;2023-02-01T17:29:04;4.30;99.90
34434;DHT22;34290;48.562;13.384;2023-02-01T17:31:32;4.30;99.90
34434;DHT22;34290;48.562;13.384;2023-02-01T17:36:27;4.40;99.90